createdAt,value
2023-04-22T00:02:17.069Z,5.40
2023-04-22T00:04:47.442Z,5.75
2023-04-22T00:07:15.850Z,5.72
2023-04-22T00:09:42.920Z,5.57
2023-04-22T00:12:11.742Z,5.95
2023-04-22T00:14:38.865Z,5.80
2023-04-22T00:17:07.107Z,5.88
2023-04-22T00:19:34.644Z,5.72
2023-04-22T00:22:01.885Z,6.05
2023-04-22T00:24:28.881Z,5.70
2023-04-22T00:26:55.778Z,5.90
2023-04-22T00:29:22.544Z,5.47
2023-04-22T00:31:49.382Z,5.40
2023-04-22T00:34:17.842Z,6.22
2023-04-22T00:36:44.942Z,6.20
2023-04-22T00:39:12.425Z,5.73
2023-04-22T00:41:40.106Z,5.95
2023-04-22T00:44:10.916Z,5.85
2023-04-22T00:46:39.297Z,6.07
2023-04-22T00:49:08.231Z,6.75
2023-04-22T00:51:35.316Z,6.13
2023-04-22T00:54:02.216Z,6.22
2023-04-22T00:56:31.376Z,6.53
2023-04-22T00:58:58.935Z,6.20
2023-04-22T01:01:26.343Z,6.30
2023-04-22T01:03:53.913Z,5.63
2023-04-22T01:06:22.216Z,5.90
2023-04-22T01:08:48.933Z,5.45
2023-04-22T01:11:15.952Z,5.93
2023-04-22T01:13:43.154Z,5.70
2023-04-22T01:16:10.800Z,6.30
2023-04-22T01:18:37.802Z,5.63
2023-04-22T01:21:05.487Z,5.53
2023-04-22T01:23:32.726Z,5.90
2023-04-22T01:25:59.852Z,6.65
2023-04-22T01:28:26.700Z,5.13
2023-04-22T01:30:56.009Z,4.97
2023-04-22T01:33:23.302Z,7.10
2023-04-22T01:35:50.311Z,5.15
2023-04-22T01:38:17.045Z,5.10
2023-04-22T01:40:43.829Z,6.10
2023-04-22T01:43:11.044Z,5.28
2023-04-22T01:45:38.998Z,6.47
2023-04-22T01:48:06.986Z,5.88
2023-04-22T01:50:34.097Z,5.95
2023-04-22T01:53:01.100Z,6.17
2023-04-22T01:55:28.140Z,6.03
2023-04-22T01:57:54.873Z,6.50
2023-04-22T02:00:22.011Z,6.70
2023-04-22T02:02:48.863Z,6.20
2023-04-22T02:05:16.046Z,6.13
2023-04-22T02:07:45.755Z,6.80
2023-04-22T02:10:16.179Z,6.22
2023-04-22T02:12:43.087Z,6.13
2023-04-22T02:15:10.541Z,5.97
2023-04-22T02:17:37.792Z,7.00
2023-04-22T02:20:05.833Z,6.03
2023-04-22T02:22:33.074Z,6.20
2023-04-22T02:24:59.922Z,5.80
2023-04-22T02:27:26.629Z,5.72
2023-04-22T02:29:53.413Z,6.27
2023-04-22T02:32:20.190Z,6.38
2023-04-22T02:34:47.971Z,7.22
2023-04-22T02:37:15.187Z,6.32
2023-04-22T02:39:42.357Z,6.05
2023-04-22T02:42:09.206Z,6.50
2023-04-22T02:44:36.046Z,6.30
2023-04-22T02:47:03.754Z,6.07
2023-04-22T02:49:30.658Z,5.93
2023-04-22T02:51:57.648Z,6.05
2023-04-22T02:54:24.455Z,6.27
2023-04-22T02:56:51.294Z,6.10
2023-04-22T02:59:18.046Z,6.57
2023-04-22T03:01:45.085Z,6.45
2023-04-22T03:04:21.961Z,6.72
2023-04-22T03:06:49.722Z,6.90
2023-04-22T03:09:17.232Z,7.03
2023-04-22T03:11:44.460Z,6.95
2023-04-22T03:14:11.283Z,7.07
2023-04-22T03:16:38.911Z,6.97
2023-04-22T03:19:06.272Z,8.73
2023-04-22T03:21:34.460Z,7.47
2023-04-22T03:24:02.057Z,6.95
2023-04-22T03:26:32.054Z,6.28
2023-04-22T03:28:59.770Z,6.25
2023-04-22T03:31:26.592Z,5.80
2023-04-22T03:33:53.311Z,5.95
2023-04-22T03:36:28.217Z,5.40
2023-04-22T03:38:55.789Z,6.05
2023-04-22T03:41:26.420Z,6.57
2023-04-22T03:43:53.147Z,6.40
2023-04-22T03:46:21.007Z,6.10
2023-04-22T03:48:56.584Z,6.07
2023-04-22T03:51:29.233Z,5.57
2023-04-22T03:53:57.703Z,5.47
2023-04-22T03:56:26.868Z,5.50
2023-04-22T03:58:57.510Z,5.18
2023-04-22T04:01:25.276Z,5.13
2023-04-22T04:03:56.204Z,4.22
2023-04-22T04:06:25.475Z,4.18
2023-04-22T04:08:52.213Z,4.00
2023-04-22T04:11:19.138Z,4.03
2023-04-22T04:13:46.688Z,4.30
2023-04-22T04:16:39.573Z,4.05
2023-04-22T04:19:11.813Z,4.07
2023-04-22T04:21:39.461Z,4.40
2023-04-22T04:24:07.370Z,3.72
2023-04-22T04:26:39.229Z,3.70
2023-04-22T04:29:10.520Z,3.78
2023-04-22T04:31:41.609Z,4.50
2023-04-22T04:34:08.539Z,4.03
2023-04-22T04:36:39.760Z,4.10
2023-04-22T04:39:18.926Z,4.35
2023-04-22T04:41:46.308Z,4.38
2023-04-22T04:44:13.064Z,4.05
2023-04-22T04:46:40.602Z,3.80
2023-04-22T04:49:12.559Z,4.03
2023-04-22T04:51:50.102Z,4.10
2023-04-22T04:54:17.198Z,4.88
2023-04-22T04:56:43.988Z,12.00
2023-04-22T04:59:37.205Z,8.13
2023-04-22T05:02:04.387Z,6.72
2023-04-22T05:04:31.354Z,5.60
2023-04-22T05:06:58.415Z,4.80
2023-04-22T05:09:25.701Z,4.32
2023-04-22T05:11:52.528Z,5.20
2023-04-22T05:14:21.157Z,5.07
2023-04-22T05:16:48.326Z,4.60
2023-04-22T05:19:15.479Z,4.10
2023-04-22T05:21:43.056Z,4.80
2023-04-22T05:24:09.885Z,4.60
2023-04-22T05:26:36.956Z,5.30
2023-04-22T05:29:11.382Z,5.72
2023-04-22T05:31:38.181Z,4.95
2023-04-22T05:34:05.082Z,4.88
2023-04-22T05:36:32.893Z,5.17
2023-04-22T05:38:59.991Z,4.63
2023-04-22T05:41:27.362Z,4.05
2023-04-22T05:43:56.358Z,4.90
2023-04-22T05:46:23.247Z,4.88
2023-04-22T05:48:51.231Z,5.33
2023-04-22T05:51:36.302Z,5.43
2023-04-22T05:54:03.422Z,5.90
2023-04-22T05:56:30.327Z,6.28
2023-04-22T05:58:57.092Z,6.95
2023-04-22T06:01:25.001Z,6.87
2023-04-22T06:03:58.648Z,6.35
2023-04-22T06:06:27.419Z,7.18
2023-04-22T06:08:54.294Z,6.18
2023-04-22T06:11:21.031Z,7.82
2023-04-22T06:13:47.832Z,8.37
2023-04-22T06:16:16.158Z,8.88
2023-04-22T06:18:43.678Z,8.45
2023-04-22T06:21:12.369Z,9.30
2023-04-22T06:23:40.193Z,9.65
2023-04-22T06:26:07.004Z,9.40
2023-04-22T06:28:35.566Z,10.00
2023-04-22T06:31:06.742Z,9.52
2023-04-22T06:33:33.475Z,10.25
2023-04-22T06:36:01.616Z,10.13
2023-04-22T06:38:30.416Z,10.40
2023-04-22T06:41:17.536Z,10.90
2023-04-22T06:43:49.716Z,10.70
2023-04-22T06:46:17.611Z,9.27
2023-04-22T06:49:03.352Z,10.60
2023-04-22T06:51:30.973Z,11.37
2023-04-22T06:53:58.477Z,8.98
2023-04-22T06:56:25.741Z,12.15
2023-04-22T06:58:52.458Z,13.10
2023-04-22T07:01:19.546Z,12.57
2023-04-22T07:06:15.010Z,11.75
2023-04-22T07:08:42.061Z,12.68
2023-04-22T07:11:10.659Z,13.35
2023-04-22T07:13:48.987Z,13.95
2023-04-22T07:16:15.691Z,14.57
2023-04-22T07:18:42.499Z,14.25
2023-04-22T07:21:09.182Z,15.90
2023-04-22T07:23:36.062Z,16.88
2023-04-22T07:26:02.868Z,16.10
2023-04-22T07:28:29.597Z,16.03
2023-04-22T07:30:56.293Z,16.40
2023-04-22T07:33:23.046Z,15.68
2023-04-22T07:35:50.232Z,17.20
2023-04-22T07:38:17.534Z,16.35
2023-04-22T07:40:44.244Z,15.43
2023-04-22T07:43:10.973Z,15.75
2023-04-22T07:45:37.800Z,14.60
2023-04-22T07:48:04.899Z,14.80
2023-04-22T07:50:31.652Z,15.85
2023-04-22T07:52:58.420Z,14.87
2023-04-22T07:55:25.339Z,16.00
2023-04-22T07:57:52.166Z,15.65
2023-04-22T08:00:18.883Z,16.80
2023-04-22T08:02:46.957Z,14.95
2023-04-22T08:05:13.915Z,16.50
2023-04-22T08:07:40.912Z,16.27
2023-04-22T08:10:08.211Z,17.08
2023-04-22T08:12:35.262Z,15.73
2023-04-22T08:15:02.119Z,15.38
2023-04-22T08:17:29.058Z,15.33
2023-04-22T08:19:55.902Z,15.80
2023-04-22T08:22:23.771Z,16.27
2023-04-22T08:24:50.474Z,13.95
2023-04-22T08:27:19.113Z,15.20
2023-04-22T08:29:45.902Z,14.63
2023-04-22T08:32:12.677Z,13.32
2023-04-22T08:34:39.445Z,14.23
2023-04-22T08:37:06.384Z,14.07
2023-04-22T08:39:33.152Z,13.10
2023-04-22T08:41:59.919Z,14.33
2023-04-22T08:44:27.271Z,11.95
2023-04-22T08:46:55.863Z,11.23
2023-04-22T08:49:25.035Z,10.93
2023-04-22T08:51:53.042Z,12.25
2023-04-22T08:54:19.862Z,11.37
2023-04-22T08:56:46.946Z,10.77
2023-04-22T08:59:13.920Z,9.95
2023-04-22T09:01:42.177Z,10.77
2023-04-22T09:04:15.525Z,10.07
2023-04-22T09:06:42.289Z,9.37
2023-04-22T09:09:09.038Z,10.57
2023-04-22T09:11:36.526Z,9.70
2023-04-22T09:14:06.556Z,10.13
2023-04-22T09:16:40.040Z,10.70
2023-04-22T09:19:11.250Z,10.83
2023-04-22T09:21:39.090Z,11.32
2023-04-22T09:24:08.043Z,10.10
2023-04-22T09:26:38.881Z,10.18
2023-04-22T09:29:09.261Z,9.18
2023-04-22T09:31:40.738Z,10.67
2023-04-22T09:34:08.170Z,11.13
2023-04-22T09:36:37.361Z,11.90
2023-04-22T09:39:07.267Z,11.35
2023-04-22T09:41:36.222Z,11.65
2023-04-22T09:44:05.634Z,12.13
2023-04-22T09:46:33.928Z,11.13
2023-04-22T09:49:01.214Z,11.05
2023-04-22T09:51:28.992Z,11.25
2023-04-22T09:54:06.214Z,12.05
2023-04-22T09:56:52.905Z,11.00
2023-04-22T09:59:21.686Z,10.73
2023-04-22T10:01:49.520Z,10.27
2023-04-22T10:04:21.251Z,11.73
2023-04-22T10:06:49.159Z,11.40
2023-04-22T10:09:20.447Z,10.83
2023-04-22T10:11:48.967Z,10.50
2023-04-22T10:14:16.017Z,11.80
2023-04-22T10:16:47.091Z,10.13
2023-04-22T10:19:23.981Z,11.82
2023-04-22T10:22:00.561Z,11.53
2023-04-22T10:24:29.257Z,10.82
2023-04-22T10:26:58.181Z,10.20
2023-04-22T10:29:26.882Z,10.82
2023-04-22T10:31:59.539Z,10.80
2023-04-22T10:34:26.372Z,10.57
2023-04-22T10:36:58.655Z,10.70
2023-04-22T10:39:26.827Z,11.15
2023-04-22T10:42:15.348Z,10.43
2023-04-22T10:45:00.102Z,10.40
2023-04-22T10:47:35.763Z,10.23
2023-04-22T10:50:19.942Z,9.95
2023-04-22T10:52:50.440Z,10.70
2023-04-22T10:55:17.524Z,9.73
2023-04-22T10:57:46.518Z,10.32
2023-04-22T11:00:23.791Z,11.03
2023-04-22T11:03:06.237Z,9.80
2023-04-22T11:05:35.487Z,9.27
2023-04-22T11:08:06.594Z,8.90
2023-04-22T11:10:45.232Z,8.00
2023-04-22T11:13:17.742Z,9.40
2023-04-22T11:15:46.842Z,9.68
2023-04-22T11:18:17.334Z,8.82
2023-04-22T11:20:44.363Z,9.43
2023-04-22T11:23:11.112Z,9.60
2023-04-22T11:25:37.860Z,10.50
2023-04-22T11:28:04.609Z,9.60
2023-04-22T11:30:31.638Z,11.10
2023-04-22T11:33:00.638Z,10.90
2023-04-22T11:35:32.527Z,11.35
2023-04-22T11:38:00.186Z,11.47
2023-04-22T11:40:38.045Z,11.45
2023-04-22T11:43:07.108Z,10.30
2023-04-22T11:45:35.819Z,10.65
2023-04-22T11:48:04.885Z,11.40
2023-04-22T11:50:36.720Z,10.80
2023-04-22T11:53:12.589Z,12.32
2023-04-22T11:55:40.813Z,12.30
2023-04-22T11:58:14.180Z,11.90
2023-04-22T12:00:50.337Z,11.80
2023-04-22T12:03:18.558Z,12.00
2023-04-22T12:06:04.705Z,10.98
2023-04-22T12:08:44.417Z,11.95
2023-04-22T12:11:12.253Z,11.25
2023-04-22T12:13:39.120Z,11.48
2023-04-22T12:16:06.891Z,10.63
2023-04-22T12:18:38.042Z,11.13
2023-04-22T12:21:04.698Z,10.65
2023-04-22T12:23:41.178Z,11.60
2023-04-22T12:26:08.010Z,11.15
2023-04-22T12:28:34.801Z,11.80
2023-04-22T12:31:01.724Z,10.60
2023-04-22T12:33:28.481Z,10.38
2023-04-22T12:35:55.485Z,10.77
2023-04-22T12:38:22.209Z,10.65
2023-04-22T12:40:49.061Z,10.50
2023-04-22T12:43:15.804Z,11.70
2023-04-22T12:45:42.702Z,11.35
2023-04-22T12:48:09.440Z,9.82
2023-04-22T12:50:36.318Z,9.73
2023-04-22T12:53:03.250Z,10.80
2023-04-22T12:55:30.450Z,11.18
2023-04-22T12:57:57.347Z,10.48
2023-04-22T13:00:24.540Z,10.60
2023-04-22T13:02:51.578Z,11.50
2023-04-22T13:05:19.603Z,11.00
2023-04-22T13:07:53.235Z,10.40
2023-04-22T13:10:28.247Z,10.13
2023-04-22T13:12:58.541Z,11.27
2023-04-22T13:15:33.002Z,11.60
2023-04-22T13:17:59.789Z,11.23
2023-04-22T13:20:26.607Z,11.82
2023-04-22T13:22:53.732Z,11.88
2023-04-22T13:25:20.779Z,11.10
2023-04-22T13:27:47.537Z,12.88
2023-04-22T13:30:14.626Z,13.27
2023-04-22T13:32:41.389Z,12.85
2023-04-22T13:35:09.158Z,14.48
2023-04-22T13:37:36.977Z,13.63
2023-04-22T13:40:05.954Z,13.90
2023-04-22T13:42:32.850Z,14.53
2023-04-22T13:44:59.684Z,14.82
2023-04-22T13:47:26.473Z,15.40
2023-04-22T13:49:53.220Z,15.50
2023-04-22T13:52:19.943Z,14.52
2023-04-22T13:54:46.632Z,13.37
2023-04-22T13:57:13.366Z,13.73
2023-04-22T13:59:42.121Z,15.55
2023-04-22T14:02:09.198Z,16.35
2023-04-22T14:04:36.073Z,16.42
2023-04-22T14:07:04.008Z,14.93
2023-04-22T14:09:30.966Z,14.48
2023-04-22T14:11:58.230Z,13.23
2023-04-22T14:14:25.023Z,15.13
2023-04-22T14:16:52.132Z,14.68
2023-04-22T14:19:19.449Z,16.03
2023-04-22T14:21:46.274Z,14.80
2023-04-22T14:24:13.086Z,15.65
2023-04-22T14:26:39.928Z,13.23
2023-04-22T14:29:06.710Z,14.95
2023-04-22T14:31:33.422Z,15.47
2023-04-22T14:34:00.261Z,15.05
2023-04-22T14:36:27.626Z,13.70
2023-04-22T14:38:54.375Z,14.93
2023-04-22T14:41:21.575Z,14.18
2023-04-22T14:43:48.465Z,16.03
2023-04-22T14:46:15.245Z,15.77
2023-04-22T14:48:41.994Z,14.23
2023-04-22T14:51:08.702Z,14.93
2023-04-22T14:53:35.476Z,16.20
2023-04-22T14:56:02.192Z,14.03
2023-04-22T14:58:31.436Z,14.75
2023-04-22T15:00:59.865Z,13.90
2023-04-22T15:03:26.963Z,14.63
2023-04-22T15:05:54.831Z,14.88
2023-04-22T15:08:21.736Z,14.63
2023-04-22T15:10:48.452Z,14.45
2023-04-22T15:13:15.228Z,13.65
2023-04-22T15:15:42.081Z,12.77
2023-04-22T15:18:09.029Z,16.02
2023-04-22T15:20:35.810Z,14.03
2023-04-22T15:23:02.720Z,15.77
2023-04-22T15:25:29.488Z,15.95
2023-04-22T15:27:56.984Z,13.45
2023-04-22T15:30:24.173Z,14.07
2023-04-22T15:32:51.049Z,14.80
2023-04-22T15:35:18.104Z,15.88
2023-04-22T15:37:45.736Z,15.20
2023-04-22T15:40:12.469Z,15.25
2023-04-22T15:42:39.166Z,13.75
2023-04-22T15:45:06.639Z,14.53
2023-04-22T15:47:33.760Z,14.05
2023-04-22T15:50:06.649Z,15.07
2023-04-22T15:52:34.063Z,16.20
2023-04-22T15:55:01.888Z,15.65
2023-04-22T15:57:33.041Z,15.77
2023-04-22T16:00:11.964Z,14.23
2023-04-22T16:02:43.825Z,15.05
2023-04-22T16:05:11.890Z,16.10
2023-04-22T16:07:39.024Z,15.95
2023-04-22T16:10:06.654Z,16.33
2023-04-22T16:12:34.432Z,18.45
2023-04-22T16:15:01.899Z,19.50
2023-04-22T16:17:28.843Z,20.05
2023-04-22T16:19:55.725Z,19.88
2023-04-22T16:22:22.603Z,20.27
2023-04-22T16:24:49.361Z,22.10
2023-04-22T16:27:17.947Z,20.23
2023-04-22T16:29:44.781Z,21.45
2023-04-22T16:32:11.813Z,20.60
2023-04-22T16:34:38.844Z,20.30
2023-04-22T16:37:06.230Z,18.73
2023-04-22T16:39:33.530Z,19.00
2023-04-22T16:42:02.213Z,18.67
2023-04-22T16:44:28.970Z,18.33
2023-04-22T16:46:55.882Z,16.93
2023-04-22T16:49:22.574Z,17.15
2023-04-22T16:51:49.683Z,17.58
2023-04-22T16:54:16.385Z,16.90
2023-04-22T16:56:43.167Z,16.63
2023-04-22T16:59:09.847Z,17.63
2023-04-22T17:01:36.599Z,17.08
2023-04-22T17:04:03.521Z,17.20
2023-04-22T17:06:31.181Z,15.93
2023-04-22T17:08:58.123Z,15.48
2023-04-22T17:11:25.274Z,15.80
2023-04-22T17:13:52.045Z,15.25
2023-04-22T17:16:18.997Z,15.80
2023-04-22T17:18:47.044Z,14.10
2023-04-22T17:21:14.305Z,13.65
2023-04-22T17:23:41.144Z,14.53
2023-04-22T17:26:08.402Z,15.50
2023-04-22T17:28:35.530Z,14.93
2023-04-22T17:31:03.767Z,15.90
2023-04-22T17:33:31.209Z,16.08
2023-04-22T17:35:58.000Z,14.40
2023-04-22T17:38:24.748Z,16.42
2023-04-22T17:40:51.460Z,14.48
2023-04-22T17:43:18.242Z,16.33
2023-04-22T17:45:44.923Z,16.48
2023-04-22T17:48:11.603Z,15.67
2023-04-22T17:50:38.357Z,17.08
2023-04-22T17:53:05.329Z,15.80
2023-04-22T17:55:35.153Z,15.85
2023-04-22T17:58:03.136Z,18.45
2023-04-22T18:00:30.816Z,17.60
2023-04-22T18:02:57.831Z,16.83
2023-04-22T18:05:25.185Z,18.73
2023-04-22T18:07:52.436Z,19.45
2023-04-22T18:10:19.290Z,19.60
2023-04-22T18:12:45.979Z,22.87
2023-04-22T18:15:12.653Z,20.27
2023-04-22T18:17:39.457Z,23.50
2023-04-22T18:20:17.198Z,21.58
2023-04-22T18:22:49.178Z,22.88
2023-04-22T18:25:16.379Z,21.47
2023-04-22T18:27:43.467Z,22.27
2023-04-22T18:30:10.597Z,21.08
2023-04-22T18:32:37.834Z,21.90
2023-04-22T18:35:05.179Z,19.65
2023-04-22T18:37:34.404Z,19.20
2023-04-22T18:40:01.803Z,21.25
2023-04-22T18:42:28.901Z,21.25
2023-04-22T18:44:55.653Z,18.58
2023-04-22T18:47:22.486Z,18.52
2023-04-22T18:49:49.316Z,19.23
2023-04-22T18:52:17.131Z,17.08
2023-04-22T18:54:44.202Z,18.48
2023-04-22T18:57:11.115Z,18.92
2023-04-22T18:59:38.061Z,17.75
2023-04-22T19:02:06.430Z,20.03
2023-04-22T19:04:33.269Z,18.70
2023-04-22T19:07:00.172Z,17.52
2023-04-22T19:09:26.996Z,19.20
2023-04-22T19:11:53.699Z,17.95
2023-04-22T19:14:20.449Z,20.77
2023-04-22T19:16:47.170Z,18.58
2023-04-22T19:19:13.985Z,19.58
2023-04-22T19:21:41.056Z,22.02
2023-04-22T19:24:07.783Z,22.15
2023-04-22T19:26:34.485Z,20.53
2023-04-22T19:29:01.291Z,18.88
2023-04-22T19:31:29.055Z,21.95
2023-04-22T19:33:55.912Z,21.30
2023-04-22T19:36:22.688Z,20.15
2023-04-22T19:38:49.588Z,19.47
2023-04-22T19:41:16.565Z,21.13
2023-04-22T19:43:43.374Z,20.58
2023-04-22T19:46:10.318Z,21.27
2023-04-22T19:48:37.392Z,23.10
2023-04-22T19:51:05.467Z,23.17
2023-04-22T19:53:33.079Z,22.77
2023-04-22T19:55:59.895Z,22.48
2023-04-22T19:58:28.303Z,22.95
2023-04-22T20:00:55.576Z,23.50
2023-04-22T20:03:22.888Z,23.93
2023-04-22T20:05:50.394Z,22.30
2023-04-22T20:08:19.655Z,23.63
2023-04-22T20:10:49.511Z,24.23
2023-04-22T20:13:17.340Z,23.17
2023-04-22T20:15:44.699Z,23.13
2023-04-22T20:18:11.993Z,24.60
2023-04-22T20:20:40.401Z,24.80
2023-04-22T20:23:10.391Z,23.73
2023-04-22T20:25:41.955Z,24.50
2023-04-22T20:28:10.558Z,25.17
2023-04-22T20:30:37.603Z,25.90
2023-04-22T20:33:04.497Z,24.88
2023-04-22T20:35:32.003Z,24.38
2023-04-22T20:38:00.476Z,24.25
2023-04-22T20:40:28.872Z,26.57
2023-04-22T20:42:58.131Z,25.90
2023-04-22T20:45:25.839Z,25.77
2023-04-22T20:47:53.411Z,27.15
2023-04-22T20:50:22.892Z,26.75
2023-04-22T20:52:50.079Z,27.50
2023-04-22T20:55:17.022Z,25.20
2023-04-22T20:57:43.998Z,25.95
2023-04-22T21:00:11.478Z,23.70
2023-04-22T21:02:39.235Z,25.38
2023-04-22T21:05:06.698Z,23.83
2023-04-22T21:07:35.010Z,22.90
2023-04-22T21:10:02.145Z,24.55
2023-04-22T21:12:29.243Z,27.02
2023-04-22T21:14:56.223Z,29.70
2023-04-22T21:17:26.988Z,36.17
2023-04-22T21:19:56.946Z,32.38
2023-04-22T21:22:24.940Z,28.63
2023-04-22T21:24:52.764Z,27.35
2023-04-22T21:27:22.012Z,23.27
2023-04-22T21:29:49.653Z,24.70
2023-04-22T21:32:17.436Z,23.85
2023-04-22T21:34:44.904Z,22.60
2023-04-22T21:37:12.547Z,21.77
2023-04-22T21:39:40.320Z,23.83
2023-04-22T21:42:10.443Z,22.50
2023-04-22T21:44:37.989Z,20.33
2023-04-22T21:47:05.747Z,21.63
2023-04-22T21:49:32.603Z,20.35
2023-04-22T21:51:59.614Z,18.30
2023-04-22T21:54:26.433Z,18.60
2023-04-22T21:56:53.274Z,17.05
2023-04-22T21:59:20.110Z,19.02
2023-04-22T22:01:46.989Z,20.02
2023-04-22T22:04:16.022Z,23.00
2023-04-22T22:06:43.884Z,23.97
2023-04-22T22:09:11.469Z,27.35
2023-04-22T22:11:38.181Z,26.38
2023-04-22T22:14:05.069Z,26.67
2023-04-22T22:16:31.968Z,27.70
2023-04-22T22:18:58.721Z,30.87
2023-04-22T22:21:25.551Z,30.08
2023-04-22T22:23:52.403Z,31.77
2023-04-22T22:26:19.434Z,32.30
2023-04-22T22:28:46.383Z,32.80
2023-04-22T22:31:13.183Z,34.63
2023-04-22T22:33:40.160Z,33.50
2023-04-22T22:36:07.053Z,33.20
2023-04-22T22:38:33.859Z,33.33
2023-04-22T22:41:00.641Z,31.65
2023-04-22T22:43:27.467Z,32.90
2023-04-22T22:45:54.281Z,33.47
2023-04-22T22:48:21.228Z,33.88
2023-04-22T22:50:48.875Z,31.23
2023-04-22T22:53:15.637Z,30.77
2023-04-22T22:55:42.333Z,32.70
2023-04-22T22:58:09.070Z,32.63
2023-04-22T23:00:36.234Z,31.90
2023-04-22T23:03:03.877Z,32.10
2023-04-22T23:05:31.008Z,32.17
2023-04-22T23:07:57.730Z,30.80
2023-04-22T23:10:24.494Z,29.95
2023-04-22T23:12:51.326Z,29.67
2023-04-22T23:15:18.103Z,32.00
2023-04-22T23:17:44.981Z,29.42
2023-04-22T23:20:12.221Z,30.80
2023-04-22T23:22:42.707Z,27.90
2023-04-22T23:25:10.291Z,29.60
2023-04-22T23:27:37.385Z,31.88
2023-04-22T23:30:05.207Z,30.17
2023-04-22T23:32:32.915Z,30.83
2023-04-22T23:35:01.626Z,30.58
2023-04-22T23:37:29.462Z,30.55
2023-04-22T23:39:56.251Z,30.98
2023-04-22T23:42:23.051Z,31.63
2023-04-22T23:44:49.878Z,31.67
2023-04-22T23:47:16.936Z,30.13
2023-04-22T23:49:43.938Z,31.33
2023-04-22T23:52:12.706Z,30.48
2023-04-22T23:54:40.403Z,33.00
2023-04-22T23:57:07.694Z,32.43
2023-04-22T23:59:34.667Z,31.65
